Time;durP1;ratioP1;P1;durP2;ratioP2;P2;SDS_P1;SDS_P2;PMS_P1;PMS_P2;Temp;Humidity;BMP_temperature;BMP_pressure;BME280_temperature;BME280_humidity;BME280_pressure;Samples;Min_cycle;Max_cycle;Signal;HPM_P1;HPM_P2
2022/12/20 00:01:14;;;;;;;5.00;2.53;;;;;;;9.90;84.47;101339.97;4994294;28;20026;-67
2022/12/20 00:03:40;;;;;;;4.68;2.33;;;;;;;9.91;84.48;101343.50;5005627;28;20022;-68
2022/12/20 00:06:05;;;;;;;5.85;2.70;;;;;;;9.91;84.59;101353.91;5012682;28;20032;-68
2022/12/20 00:08:31;;;;;;;6.45;2.58;;;;;;;9.87;84.66;101345.09;5015594;28;20058;-68
2022/12/20 00:11:00;;;;;;;4.30;2.63;;;;;;;9.87;84.58;101355.50;5006633;28;20266;-68
2022/12/20 00:13:25;;;;;;;5.68;2.67;;;;;;;9.90;84.47;101346.91;5003497;28;20018;-68
2022/12/20 00:16:01;;;;;;;5.13;2.60;;;;;;;9.91;84.29;101344.38;5010542;28;20199;-68
2022/12/20 00:18:26;;;;;;;4.93;2.65;;;;;;;9.92;84.28;101343.53;4999887;28;20180;-68
2022/12/20 00:20:57;;;;;;;4.32;2.40;;;;;;;9.95;84.05;101339.25;5005709;28;20022;-68
2022/12/20 00:23:22;;;;;;;5.85;3.00;;;;;;;9.94;84.07;101332.31;5005848;28;20036;-68
2022/12/20 00:25:48;;;;;;;5.03;2.60;;;;;;;10.00;84.00;101335.09;5008470;28;20053;-68
2022/12/20 00:28:13;;;;;;;4.65;2.72;;;;;;;10.04;83.71;101342.19;4992114;28;20204;-67
2022/12/20 00:30:38;;;;;;;4.55;2.80;;;;;;;10.05;83.70;101334.44;5007294;28;20022;-68
2022/12/20 00:33:03;;;;;;;4.97;2.70;;;;;;;10.06;83.75;101317.94;5003087;28;20443;-68
2022/12/20 00:35:29;;;;;;;4.93;2.63;;;;;;;10.07;83.60;101317.13;5018111;28;20029;-68
2022/12/20 00:37:54;;;;;;;4.80;2.55;;;;;;;10.09;83.43;101314.56;5012005;28;20029;-68
2022/12/20 00:40:19;;;;;;;4.63;2.70;;;;;;;10.10;83.47;101317.22;5018943;28;20115;-68
2022/12/20 00:42:44;;;;;;;4.95;2.65;;;;;;;10.13;83.20;101311.25;5002749;28;20106;-68
2022/12/20 00:45:10;;;;;;;6.90;2.55;;;;;;;10.18;83.16;101308.78;4994140;28;20053;-68
2022/12/20 00:47:35;;;;;;;5.10;2.88;;;;;;;10.20;82.86;101296.72;5002958;28;20200;-71
2022/12/20 00:50:00;;;;;;;4.40;2.50;;;;;;;10.20;82.71;101289.78;5011146;28;20029;-71
2022/12/20 00:52:26;;;;;;;5.75;2.67;;;;;;;10.20;83.03;101305.41;5008400;28;20049;-71
2022/12/20 00:54:51;;;;;;;4.93;2.63;;;;;;;10.21;82.96;101295.84;4999241;28;20264;-71
2022/12/20 00:57:16;;;;;;;4.97;2.65;;;;;;;10.24;82.91;101301.19;5009748;28;20045;-71
2022/12/20 00:59:41;;;;;;;4.20;2.60;;;;;;;10.25;82.89;101300.31;4999720;28;20116;-71
2022/12/20 01:02:07;;;;;;;5.18;2.92;;;;;;;10.28;82.94;101292.63;5004912;28;20220;-71
2022/12/20 01:04:32;;;;;;;7.30;3.00;;;;;;;10.30;83.23;101303.06;5000833;28;20052;-71
2022/12/20 01:06:57;;;;;;;5.40;2.75;;;;;;;10.29;84.29;101303.94;5007984;28;20286;-71
2022/12/20 01:09:22;;;;;;;6.13;2.95;;;;;;;10.29;85.23;101298.72;4993303;28;20040;-71
2022/12/20 01:11:48;;;;;;;5.88;3.10;;;;;;;10.25;86.09;101301.25;5011199;28;20265;-71
2022/12/20 01:14:15;;;;;;;5.97;3.00;;;;;;;10.20;86.51;101302.78;5003838;28;20033;-71
2022/12/20 01:16:43;;;;;;;8.40;3.47;;;;;;;10.17;87.62;101322.66;5007725;28;20077;-70
2022/12/20 01:19:12;;;;;;;8.68;3.50;;;;;;;10.12;87.64;101322.47;5013146;28;20053;-71
2022/12/20 01:21:43;;;;;;;6.57;3.25;;;;;;;10.10;88.24;101312.00;5030038;28;20011;-71
2022/12/20 01:24:09;;;;;;;7.35;3.42;;;;;;;10.06;88.48;101315.34;5033437;28;20207;-71
2022/12/20 01:26:34;;;;;;;7.57;3.30;;;;;;;10.03;88.85;101298.75;5007840;28;20078;-71
2022/12/20 01:28:59;;;;;;;7.63;3.60;;;;;;;9.99;90.27;101292.53;5007751;28;20240;-71
2022/12/20 01:31:26;;;;;;;8.52;3.35;;;;;;;9.96;91.39;101318.47;5001202;28;20062;-71
2022/12/20 01:33:51;;;;;;;9.48;3.47;;;;;;;9.90;91.77;101315.69;5006906;28;20023;-71
2022/12/20 01:36:20;;;;;;;7.78;3.53;;;;;;;9.86;92.89;101319.00;5016668;28;20014;-71
2022/12/20 01:38:46;;;;;;;7.75;3.88;;;;;;;9.82;93.71;101314.53;5012030;28;20026;-71
2022/12/20 01:41:19;;;;;;;7.47;3.75;;;;;;;9.78;94.30;101308.34;5026450;28;20053;-71
2022/12/20 01:43:58;;;;;;;8.65;3.67;;;;;;;9.73;95.49;101294.28;5010346;28;20022;-71
2022/12/20 01:46:26;;;;;;;6.90;3.30;;;;;;;9.68;95.70;101296.72;4997437;28;20293;-71
2022/12/20 01:48:58;;;;;;;5.97;3.28;;;;;;;9.63;96.32;101298.31;5007302;28;20060;-72
2022/12/20 01:51:24;;;;;;;8.13;3.60;;;;;;;9.62;96.84;101290.44;4991751;28;20031;-71
2022/12/20 01:54:00;;;;;;;6.57;3.63;;;;;;;9.58;97.21;101295.50;5008760;28;20026;-71
2022/12/20 01:56:25;;;;;;;6.50;3.47;;;;;;;9.55;97.74;101274.59;5012201;28;20360;-71
2022/12/20 01:58:53;;;;;;;7.95;3.70;;;;;;;9.54;98.08;101269.34;5007621;28;20152;-71
2022/12/20 02:01:21;;;;;;;8.57;3.60;;;;;;;9.52;98.25;101279.69;5004941;28;20006;-71
2022/12/20 02:03:48;;;;;;;7.97;3.40;;;;;;;9.52;98.65;101274.50;5013100;28;20022;-71
2022/12/20 02:06:25;;;;;;;7.47;3.47;;;;;;;9.51;98.96;101269.25;5024969;28;20009;-71
2022/12/20 02:08:53;;;;;;;8.55;3.65;;;;;;;9.50;99.27;101272.66;5021196;28;20256;-71
2022/12/20 02:12:07;;;;;;;8.50;4.00;;;;;;;9.48;99.00;101269.13;5026409;28;20018;-71
2022/12/20 02:15:03;;;;;;;8.13;3.53;;;;;;;9.48;99.66;101251.81;4965576;29;20023;-71
2022/12/20 02:18:00;;;;;;;4.88;3.10;;;;;;;9.45;100.00;101250.84;5013056;28;20049;-71
2022/12/20 02:21:05;;;;;;;7.20;3.55;;;;;;;9.40;100.00;101237.66;5009755;28;20014;-71
2022/12/20 02:23:52;;;;;;;6.05;2.97;;;;;;;9.36;100.00;101234.06;4960746;28;20092;-71
2022/12/20 02:26:54;;;;;;;6.30;3.63;;;;;;;9.35;100.00;101234.88;5025637;28;20176;-71
2022/12/20 02:29:34;;;;;;;4.50;2.65;;;;;;;9.33;100.00;101236.56;5025625;28;20028;-71
2022/12/20 02:32:03;;;;;;;;;;;;;;;9.35;98.97;101234.00;5018818;28;20018;-71
2022/12/20 02:34:32;;;;;;;7.30;2.92;;;;;;;9.31;99.99;101238.25;4998261;28;20052;-71
2022/12/20 02:36:57;;;;;;;5.95;2.67;;;;;;;9.32;100.00;101234.78;5009100;28;20025;-71
2022/12/20 02:39:26;;;;;;;6.30;2.83;;;;;;;9.32;99.86;101226.97;5022325;28;20089;-71
2022/12/20 02:41:57;;;;;;;4.53;2.72;;;;;;;9.31;99.72;101222.63;5025610;28;20025;-71
2022/12/20 02:47:18;;;;;;;6.13;3.00;;;;;;;9.33;99.38;101220.97;5005083;28;20107;-71
2022/12/20 02:49:45;;;;;;;5.43;2.90;;;;;;;9.37;98.78;101222.84;5005106;28;20030;-71
2022/12/20 02:52:13;;;;;;;4.75;2.88;;;;;;;9.40;98.37;101219.47;4998892;28;20036;-71
2022/12/20 02:54:38;;;;;;;4.70;2.65;;;;;;;9.40;98.48;101204.72;5009153;28;20014;-71
2022/12/20 02:57:19;;;;;;;5.47;2.85;;;;;;;9.43;98.09;101216.97;5012071;28;20133;-71
2022/12/20 03:00:01;;;;;;;5.75;2.90;;;;;;;9.45;97.87;101211.81;5005823;28;20335;-71
2022/12/20 03:02:27;;;;;;;4.68;2.42;;;;;;;9.46;97.55;101211.88;5001475;28;20025;-71
2022/12/20 03:04:53;;;;;;;4.88;2.65;;;;;;;9.50;97.03;101205.94;5011852;28;20250;-71
2022/12/20 03:07:18;;;;;;;5.30;2.55;;;;;;;9.54;96.84;101206.91;5014331;28;20077;-71
2022/12/20 03:09:44;;;;;;;6.03;2.95;;;;;;;9.56;96.11;101207.88;4995379;28;20022;-71
2022/12/20 03:12:11;;;;;;;4.80;2.55;;;;;;;9.58;96.02;101208.78;4995201;28;20030;-71
2022/12/20 03:14:38;;;;;;;4.50;2.50;;;;;;;9.64;95.51;101205.50;5005116;28;20028;-71
2022/12/20 03:17:03;;;;;;;5.68;2.50;;;;;;;9.69;95.35;101224.75;4999131;28;20077;-68
2022/12/20 03:19:29;;;;;;;5.43;2.50;;;;;;;9.70;95.28;101218.72;4994532;28;20050;-68
2022/12/20 03:21:54;;;;;;;6.22;2.78;;;;;;;9.71;94.82;101203.16;5005545;28;20284;-68
2022/12/20 03:24:20;;;;;;;4.57;2.33;;;;;;;9.75;94.83;101205.03;5000301;28;20026;-68
2022/12/20 03:26:46;;;;;;;3.97;2.47;;;;;;;9.78;94.47;101203.38;5011883;28;20031;-68
2022/12/20 03:29:11;;;;;;;5.50;2.60;;;;;;;9.81;94.13;101193.94;4990787;28;20023;-68
2022/12/20 03:31:36;;;;;;;4.93;2.90;;;;;;;9.87;93.59;101196.72;5010319;28;20276;-68
2022/12/20 03:34:02;;;;;;;3.95;2.45;;;;;;;9.90;93.55;101194.22;5006896;28;20057;-68
2022/12/20 03:36:28;;;;;;;5.97;2.45;;;;;;;9.92;93.40;101192.56;4998619;28;20029;-68
2022/12/20 03:38:54;;;;;;;5.70;2.65;;;;;;;9.95;93.16;101196.09;4989709;28;20097;-68
2022/12/20 03:41:20;;;;;;;5.55;2.67;;;;;;;9.96;92.89;101205.66;5011143;28;20026;-68
2022/12/20 03:43:47;;;;;;;4.97;2.60;;;;;;;9.97;92.75;101210.06;5004787;28;20037;-67
2022/12/20 03:46:12;;;;;;;4.88;2.65;;;;;;;10.00;92.17;101208.41;4998705;28;20106;-71
2022/12/20 03:48:38;;;;;;;5.07;2.50;;;;;;;10.04;92.42;101212.00;5000894;28;20026;-72
2022/12/20 03:51:03;;;;;;;4.75;2.60;;;;;;;10.06;92.22;101215.53;5008624;28;20079;-71
2022/12/20 03:53:29;;;;;;;4.07;2.63;;;;;;;10.10;92.04;101210.47;4999759;28;20026;-71
2022/12/20 03:55:55;;;;;;;5.88;2.72;;;;;;;10.12;92.22;101196.63;5014965;28;20097;-72
2022/12/20 03:58:20;;;;;;;4.22;2.55;;;;;;;10.13;92.05;101195.78;4998225;28;20279;-71
2022/12/20 04:00:46;;;;;;;6.32;2.35;;;;;;;10.15;91.88;101200.19;5004434;28;20022;-71
2022/12/20 04:03:11;;;;;;;4.25;2.38;;;;;;;10.17;91.90;101195.94;5003621;28;20272;-71
2022/12/20 04:05:37;;;;;;;4.90;2.80;;;;;;;10.21;91.70;101205.63;5002310;28;20029;-71
2022/12/20 04:08:02;;;;;;;5.78;2.83;;;;;;;10.23;91.61;101188.28;4996726;28;20054;-71
2022/12/20 04:10:27;;;;;;;5.85;2.70;;;;;;;10.26;91.36;101193.59;5011708;28;20022;-72
2022/12/20 04:12:52;;;;;;;4.10;2.50;;;;;;;10.30;90.73;101192.00;5004888;28;20032;-72
2022/12/20 04:15:18;;;;;;;5.00;2.70;;;;;;;10.35;90.87;101190.41;5010805;28;20048;-71
2022/12/20 04:17:43;;;;;;;4.72;2.53;;;;;;;10.37;90.70;101193.06;5004360;28;20040;-71
2022/12/20 04:20:19;;;;;;;4.43;2.50;;;;;;;10.38;90.32;101192.25;5017549;28;20049;-72
2022/12/20 04:22:50;;;;;;;5.63;2.75;;;;;;;10.42;90.31;101189.75;4986863;28;20014;-72
2022/12/20 04:25:18;;;;;;;5.10;2.75;;;;;;;10.44;90.08;101198.53;4999824;28;20105;-71
2022/12/20 04:27:43;;;;;;;3.95;2.15;;;;;;;10.45;89.96;101194.19;5005431;28;20264;-72
2022/12/20 04:30:09;;;;;;;5.35;2.50;;;;;;;10.44;90.02;101177.69;5017572;28;20086;-71
2022/12/20 04:32:35;;;;;;;5.63;2.60;;;;;;;10.46;90.26;101184.63;5010013;28;20137;-71
2022/12/20 04:35:00;;;;;;;5.22;2.45;;;;;;;10.46;89.93;101188.16;5009441;28;20042;-71
2022/12/20 04:37:26;;;;;;;6.40;2.60;;;;;;;10.49;89.99;101184.75;5010045;28;20201;-71
2022/12/20 04:39:51;;;;;;;6.32;2.78;;;;;;;10.48;89.95;101183.84;5001914;28;20050;-71
2022/12/20 04:42:16;;;;;;;5.35;2.60;;;;;;;10.49;89.81;101177.81;5004986;28;20026;-71
2022/12/20 04:44:42;;;;;;;4.68;2.60;;;;;;;10.49;89.99;101177.81;4992106;28;20077;-72
2022/12/20 04:47:08;;;;;;;5.00;2.45;;;;;;;10.49;89.49;101174.34;4999487;28;20090;-71
2022/12/20 04:49:34;;;;;;;3.40;2.40;;;;;;;10.48;89.91;101189.06;4991003;28;20023;-71
2022/12/20 04:53:46;;;;;;;4.45;2.80;;;;;;;10.49;89.94;101185.63;4998621;28;20264;-71
2022/12/20 04:54:45;;;;;;;4.45;2.53;;;;;;;10.50;89.88;101171.78;4996268;28;20034;-71
2022/12/20 04:57:10;;;;;;;6.30;2.58;;;;;;;10.53;89.76;101171.88;5000626;28;20014;-71
2022/12/20 04:59:35;;;;;;;5.18;2.70;;;;;;;10.55;89.66;101184.94;5005346;28;20018;-72
2022/12/20 05:02:01;;;;;;;4.35;2.80;;;;;;;10.53;90.00;101174.47;5003437;28;20021;-72
2022/12/20 05:04:26;;;;;;;3.90;2.20;;;;;;;10.56;89.88;101171.06;5010548;28;20224;-71
2022/12/20 05:06:52;;;;;;;5.70;2.53;;;;;;;10.56;90.08;101164.13;5003563;28;20033;-72
2022/12/20 05:09:17;;;;;;;5.65;2.55;;;;;;;10.56;90.26;101166.72;5009254;28;20026;-71
2022/12/20 05:11:42;;;;;;;4.93;2.85;;;;;;;10.56;90.36;101171.94;5017123;28;20276;-71
2022/12/20 05:14:08;;;;;;;4.05;2.60;;;;;;;10.56;90.30;101166.72;5001780;28;20030;-71
2022/12/20 05:16:33;;;;;;;5.10;2.65;;;;;;;10.58;90.45;101169.38;5002661;28;20141;-68
2022/12/20 05:18:58;;;;;;;5.18;2.63;;;;;;;10.57;90.50;101152.88;5011170;28;20034;-68
2022/12/20 05:26:52;;;;;;;4.90;2.50;;;;;;;10.60;90.76;101134.72;5017886;28;20328;-68
2022/12/20 05:29:17;;;;;;;5.28;2.50;;;;;;;10.59;90.53;101125.13;5000844;28;20031;-68
2022/12/20 05:31:43;;;;;;;4.75;2.60;;;;;;;10.59;90.62;101135.53;5008896;28;20026;-68
2022/12/20 05:34:08;;;;;;;4.43;2.58;;;;;;;10.58;90.79;101133.78;5013666;28;20225;-68
2022/12/20 05:36:33;;;;;;;3.78;2.42;;;;;;;10.57;91.06;101131.13;5002150;28;20026;-68
2022/12/20 05:38:59;;;;;;;3.78;2.42;;;;;;;10.58;90.81;101125.94;5006813;28;20049;-68
2022/12/20 05:41:24;;;;;;;4.30;2.30;;;;;;;10.56;90.85;101135.47;5003181;28;20282;-68
2022/12/20 05:43:50;;;;;;;5.10;2.30;;;;;;;10.54;91.34;101126.75;5002391;28;20026;-68
2022/12/20 05:46:16;;;;;;;8.52;2.60;;;;;;;10.52;91.05;101123.19;5004777;28;20101;-68
2022/12/20 05:48:41;;;;;;;3.65;2.33;;;;;;;10.53;91.14;101122.34;4998373;28;20072;-68
2022/12/20 05:51:06;;;;;;;4.43;2.40;;;;;;;10.52;91.03;101119.72;5018253;28;20068;-68
2022/12/20 05:53:32;;;;;;;5.05;2.20;;;;;;;10.49;91.34;101115.28;5020356;28;20022;-68
2022/12/20 05:55:58;;;;;;;4.97;2.30;;;;;;;10.45;91.24;101105.63;5026646;28;20078;-68
2022/12/20 05:58:23;;;;;;;5.05;2.45;;;;;;;10.44;91.22;101109.94;5005759;28;20026;-71
2022/12/20 06:00:49;;;;;;;4.43;2.28;;;;;;;10.44;91.03;101098.63;4994747;28;20031;-71
2022/12/20 06:03:14;;;;;;;4.00;2.22;;;;;;;10.42;91.14;101095.97;5014360;28;20045;-71
2022/12/20 06:05:40;;;;;;;4.43;2.35;;;;;;;10.42;91.06;101109.00;5019372;28;20022;-71
2022/12/20 06:08:06;;;;;;;5.13;2.47;;;;;;;10.42;91.08;101080.34;5023725;28;20038;-71
2022/12/20 06:10:36;;;;;;;4.88;2.20;;;;;;;10.43;90.74;101081.25;5014180;28;20086;-71
2022/12/20 06:13:02;;;;;;;5.03;2.13;;;;;;;10.42;90.87;101080.34;5024814;28;20026;-71
2022/12/20 06:15:29;;;;;;;4.43;2.22;;;;;;;10.42;90.25;101074.28;5002737;28;20025;-71
2022/12/20 06:17:54;;;;;;;4.32;2.33;;;;;;;10.39;90.38;101077.66;5026033;28;20033;-71
2022/12/20 06:20:20;;;;;;;4.95;2.13;;;;;;;10.41;89.91;101070.78;5023262;28;20030;-71
2022/12/20 06:22:45;;;;;;;5.57;2.40;;;;;;;10.39;90.10;101076.78;5012260;28;20024;-71
2022/12/20 06:25:11;;;;;;;4.55;2.20;;;;;;;10.38;89.77;101075.88;5025816;28;20235;-71
2022/12/20 06:27:37;;;;;;;4.05;2.30;;;;;;;10.38;89.32;101072.41;5025684;28;20026;-68
2022/12/20 06:30:06;;;;;;;4.53;2.17;;;;;;;10.36;89.30;101074.97;5025831;28;20034;-68
2022/12/20 06:32:32;;;;;;;5.70;2.45;;;;;;;10.36;89.05;101074.09;5011287;28;20084;-68
2022/12/20 06:34:57;;;;;;;5.70;2.10;;;;;;;10.34;89.23;101076.66;5025677;28;20026;-68
2022/12/20 06:37:22;;;;;;;4.22;2.15;;;;;;;10.34;88.52;101076.66;4997122;28;20018;-68
2022/12/20 06:39:48;;;;;;;3.67;1.80;;;;;;;10.34;88.73;101087.09;5005414;28;20026;-68
2022/12/20 06:42:13;;;;;;;4.97;2.00;;;;;;;10.35;88.67;101080.16;5011022;28;20022;-68
2022/12/20 06:44:38;;;;;;;4.38;2.05;;;;;;;10.34;88.45;101080.97;5003692;28;20022;-68
2022/12/20 06:47:04;;;;;;;3.92;2.03;;;;;;;10.35;88.03;101082.75;5008460;28;20176;-68
2022/12/20 06:49:29;;;;;;;4.43;2.35;;;;;;;10.36;87.92;101084.53;5006887;28;20169;-68
2022/12/20 06:51:55;;;;;;;5.43;2.30;;;;;;;10.37;87.88;101083.66;5043152;28;20284;-68
2022/12/20 06:54:20;;;;;;;4.00;2.15;;;;;;;10.37;87.68;101070.63;5015393;28;20025;-68
2022/12/20 06:56:45;;;;;;;4.03;2.08;;;;;;;10.36;87.79;101071.50;5010670;28;20224;-71
2022/12/20 06:59:11;;;;;;;6.40;2.20;;;;;;;10.35;87.39;101078.41;5003304;28;20151;-71
2022/12/20 07:01:36;;;;;;;3.67;2.10;;;;;;;10.35;87.19;101083.63;4991305;28;20022;-71
2022/12/20 07:04:01;;;;;;;4.18;2.28;;;;;;;10.37;86.95;101074.16;5002613;28;20026;-71
2022/12/20 07:06:28;;;;;;;5.18;2.30;;;;;;;10.37;86.79;101075.84;5025083;28;20018;-73
2022/12/20 07:08:53;;;;;;;4.03;2.10;;;;;;;10.41;86.49;101089.03;4999180;28;20035;-73
2022/12/20 07:11:18;;;;;;;5.32;2.10;;;;;;;10.43;86.58;101087.34;5005807;28;20212;-74
2022/12/20 07:13:44;;;;;;;4.93;1.83;;;;;;;10.46;86.28;101081.34;5006092;28;20018;-74
2022/12/20 07:16:09;;;;;;;4.45;2.00;;;;;;;10.47;86.12;101085.72;5027788;28;20070;-73
2022/12/20 07:18:34;;;;;;;4.50;2.25;;;;;;;10.50;85.88;101091.00;5000191;28;20216;-74
2022/12/20 07:21:01;;;;;;;4.00;2.33;;;;;;;10.53;85.73;101092.78;5007061;28;20264;-73
2022/12/20 07:23:27;;;;;;;4.07;1.88;;;;;;;10.54;85.10;101092.88;4999663;28;20014;-73
2022/12/20 07:25:56;;;;;;;7.00;2.28;;;;;;;10.56;85.07;101085.97;5009695;28;20221;-73
2022/12/20 07:28:23;;;;;;;3.55;1.80;;;;;;;10.57;85.23;101079.91;4992827;28;20025;-73
2022/12/20 07:30:49;;;;;;;3.40;1.65;;;;;;;10.57;84.79;101077.31;4993031;28;20038;-74
2022/12/20 07:33:14;;;;;;;4.22;1.70;;;;;;;10.59;85.29;101087.78;4994559;28;20280;-75
2022/12/20 07:35:39;;;;;;;6.85;1.95;;;;;;;10.63;84.44;101096.53;4994602;28;20180;-74
2022/12/20 07:38:05;;;;;;;4.07;1.95;;;;;;;10.62;84.75;101087.84;5000830;28;20045;-74
2022/12/20 07:40:30;;;;;;;5.25;1.98;;;;;;;10.63;84.57;101091.31;5003129;28;20172;-74
2022/12/20 07:42:55;;;;;;;4.38;2.00;;;;;;;10.65;84.21;101092.28;4997209;28;20069;-74
2022/12/20 07:45:20;;;;;;;3.15;1.80;;;;;;;10.65;84.16;101093.16;4991197;28;20030;-74
2022/12/20 07:47:46;;;;;;;3.60;1.83;;;;;;;10.65;84.14;101098.34;4997004;28;20030;-74
2022/12/20 07:50:11;;;;;;;3.25;1.90;;;;;;;10.65;84.09;101094.88;4994179;28;20019;-74
2022/12/20 07:52:40;;;;;;;4.00;1.90;;;;;;;10.65;83.96;101100.97;4992100;28;20022;-74
2022/12/20 07:55:07;;;;;;;4.38;1.80;;;;;;;10.65;84.10;101102.69;4994666;28;20220;-74
2022/12/20 07:57:47;;;;;;;6.68;3.90;;;;;;;10.65;84.55;101108.78;4993742;28;20077;-74
2022/12/20 08:00:14;;;;;;;8.80;4.90;;;;;;;10.65;83.95;101107.91;5009366;28;20025;-73
2022/12/20 08:02:48;;;;;;;17.73;10.73;;;;;;;10.64;84.58;101111.34;4998024;28;20033;-74
2022/12/20 08:05:13;;;;;;;12.30;7.00;;;;;;;10.64;84.98;101116.56;4997016;28;20180;-74
2022/12/20 08:07:41;;;;;;;10.60;5.40;;;;;;;10.63;85.91;101114.78;5004803;28;20265;-74
2022/12/20 08:10:08;;;;;;;18.73;9.73;;;;;;;10.59;86.82;101109.50;5003470;28;20033;-74
2022/12/20 08:12:34;;;;;;;16.90;10.93;;;;;;;10.55;87.62;101098.94;5002211;28;20032;-74
2022/12/20 08:14:59;;;;;;;7.75;5.88;;;;;;;10.50;87.67;101101.44;5001695;28;20046;-74
2022/12/20 08:17:25;;;;;;;9.18;6.88;;;;;;;10.47;88.38;101088.31;5018430;28;20081;-73
2022/12/20 08:19:50;;;;;;;5.47;3.40;;;;;;;10.43;88.76;101092.56;5008071;28;20052;-74
2022/12/20 08:22:18;;;;;;;5.38;3.42;;;;;;;10.42;88.96;101095.13;5004520;28;20023;-74
2022/12/20 08:24:43;;;;;;;4.90;2.72;;;;;;;10.39;89.25;101105.44;4993812;28;20014;-74
2022/12/20 08:27:08;;;;;;;3.92;2.28;;;;;;;10.36;89.70;101108.84;5006158;28;20026;-74
2022/12/20 08:29:33;;;;;;;5.07;2.40;;;;;;;10.33;90.82;101105.25;5021723;28;20022;-74
2022/12/20 08:31:59;;;;;;;5.00;3.75;;;;;;;10.29;91.45;101106.88;5016977;28;20065;-74
2022/12/20 08:34:25;;;;;;;5.10;2.95;;;;;;;10.24;91.74;101101.53;5016413;28;20261;-74
2022/12/20 08:36:51;;;;;;;8.25;3.03;;;;;;;10.22;92.46;101103.19;5027517;28;20093;-70
2022/12/20 08:39:16;;;;;;;5.72;2.40;;;;;;;10.19;92.88;101105.72;5026127;28;20020;-71
2022/12/20 08:41:41;;;;;;;5.53;2.58;;;;;;;10.18;92.91;101100.47;5027405;28;20226;-71
2022/12/20 08:44:07;;;;;;;3.85;2.10;;;;;;;10.17;93.18;101093.50;5002989;28;20021;-70
2022/12/20 08:46:32;;;;;;;5.05;2.22;;;;;;;10.15;93.17;101088.22;5011985;28;20078;-70
2022/12/20 08:48:58;;;;;;;4.25;2.33;;;;;;;10.15;93.55;101095.16;5007512;28;20037;-71
2022/12/20 08:51:23;;;;;;;5.93;3.08;;;;;;;10.13;93.22;101087.31;5032895;28;20042;-71
2022/12/20 08:53:48;;;;;;;9.35;7.10;;;;;;;10.13;93.75;101089.03;5007674;28;20058;-71
2022/12/20 08:56:16;;;;;;;7.63;3.78;;;;;;;10.10;94.30;101085.50;5001810;28;20264;-71
2022/12/20 08:58:43;;;;;;;6.65;4.65;;;;;;;10.08;94.61;101094.13;4996908;28;20042;-71
2022/12/20 09:01:13;;;;;;;6.80;3.88;;;;;;;10.05;95.11;101094.00;5012555;28;20295;-71
2022/12/20 09:03:39;;;;;;;5.43;3.22;;;;;;;10.01;95.63;101090.44;5017379;28;20026;-71
2022/12/20 09:06:11;;;;;;;5.57;2.92;;;;;;;9.99;96.19;101078.22;5009830;28;20085;-71
2022/12/20 09:08:38;;;;;;;7.13;2.90;;;;;;;9.96;96.49;101083.31;5023019;28;20053;-71
2022/12/20 09:11:05;;;;;;;5.82;3.08;;;;;;;9.92;96.97;101082.34;5003306;28;20282;-71
2022/12/20 09:13:30;;;;;;;5.07;2.25;;;;;;;9.89;97.28;101072.75;5010384;28;20054;-71
2022/12/20 09:15:59;;;;;;;4.95;2.72;;;;;;;9.87;97.73;101070.91;5006716;28;20224;-71
2022/12/20 09:18:24;;;;;;;4.18;2.78;;;;;;;9.86;97.85;101079.56;5008003;28;20026;-71
2022/12/20 09:20:50;;;;;;;5.43;2.80;;;;;;;9.85;97.70;101080.41;5007084;28;20029;-71
2022/12/20 09:23:15;;;;;;;4.75;2.78;;;;;;;9.86;98.38;101084.75;5000812;28;20018;-71
2022/12/20 09:25:40;;;;;;;7.53;3.28;;;;;;;9.84;98.43;101079.50;5012001;28;20367;-71
2022/12/20 09:28:05;;;;;;;5.57;2.50;;;;;;;9.84;98.53;101074.31;5019421;28;20026;-71
2022/12/20 09:30:31;;;;;;;6.10;2.65;;;;;;;9.86;98.66;101077.84;5009067;28;20022;-71
2022/12/20 09:32:56;;;;;;;6.55;2.40;;;;;;;9.87;98.99;101087.41;5015467;28;20257;-70
2022/12/20 09:35:22;;;;;;;5.53;2.80;;;;;;;9.88;99.29;101086.56;4996569;28;20351;-63
2022/12/20 09:37:47;;;;;;;5.93;2.80;;;;;;;9.90;99.46;101086.63;5000750;28;20026;-63
2022/12/20 09:40:26;;;;;;;4.40;2.78;;;;;;;9.92;99.26;101088.44;5002278;28;20022;-64
2022/12/20 09:42:52;;;;;;;4.68;2.55;;;;;;;9.91;99.22;101078.84;5011273;28;20040;-64
2022/12/20 09:45:26;;;;;;;5.15;2.78;;;;;;;9.94;99.36;101080.69;5015985;28;20037;-63
2022/12/20 09:47:52;;;;;;;6.45;2.65;;;;;;;9.95;99.07;101072.03;5025188;28;20021;-63
2022/12/20 09:50:19;;;;;;;6.07;2.50;;;;;;;9.98;99.03;101076.44;5025137;28;20017;-64
2022/12/20 09:52:50;;;;;;;4.72;2.88;;;;;;;10.00;98.39;101074.78;5026590;28;20037;-64
2022/12/20 09:55:30;;;;;;;4.82;2.45;;;;;;;10.04;97.91;101076.63;5021314;28;20085;-63
2022/12/20 09:58:18;;;;;;;4.63;2.17;;;;;;;10.04;97.79;101072.31;5020231;28;20075;-64
2022/12/20 10:00:46;;;;;;;5.85;3.00;;;;;;;10.05;97.79;101063.66;5026372;28;20071;-63
2022/12/20 10:03:18;;;;;;;5.13;2.63;;;;;;;10.06;97.70;101080.16;5026210;28;20021;-64
2022/12/20 10:05:54;;;;;;;5.82;2.40;;;;;;;10.06;97.63;101065.41;5026722;28;20009;-64
2022/12/20 10:08:36;;;;;;;5.28;2.42;;;;;;;10.08;97.25;101071.56;5026228;28;20021;-69
2022/12/20 10:11:12;;;;;;;4.60;2.38;;;;;;;10.10;97.16;101066.41;5026171;28;20025;-69
2022/12/20 10:13:58;;;;;;;4.70;2.42;;;;;;;10.12;96.78;101069.03;5026246;28;20025;-69
2022/12/20 10:16:35;;;;;;;5.03;2.47;;;;;;;10.14;97.44;101072.56;4995213;28;20046;-69
2022/12/20 10:19:16;;;;;;;5.72;2.60;;;;;;;10.17;96.76;101063.13;5025988;28;20021;-69
2022/12/20 10:21:49;;;;;;;4.72;2.40;;;;;;;10.20;96.64;101063.22;5025903;28;20026;-69
2022/12/20 10:24:33;;;;;;;4.38;2.40;;;;;;;10.24;96.77;101059.88;5026035;28;20060;-69
2022/12/20 10:27:13;;;;;;;4.85;2.47;;;;;;;10.30;96.32;101068.66;5025841;28;20021;-69
2022/12/20 10:29:38;;;;;;;5.82;2.50;;;;;;;10.33;96.14;101058.38;5025763;28;20283;-69
2022/12/20 10:32:11;;;;;;;5.70;2.60;;;;;;;10.37;96.20;101070.63;5025459;28;20028;-69
2022/12/20 10:34:37;;;;;;;5.22;2.40;;;;;;;10.39;96.22;101063.78;5025544;28;20030;-68
2022/12/20 10:37:14;;;;;;;4.65;2.47;;;;;;;10.41;96.41;101067.28;5026040;28;20032;-70
2022/12/20 10:39:46;;;;;;;4.70;2.70;;;;;;;10.42;96.47;101063.84;5025708;28;20080;-69
2022/12/20 10:42:35;;;;;;;4.93;2.50;;;;;;;10.41;97.18;101067.28;5025530;28;20319;-69
2022/12/20 10:45:01;;;;;;;6.43;2.67;;;;;;;10.39;97.42;101058.56;5025449;28;20034;-69
2022/12/20 10:47:42;;;;;;;4.97;2.53;;;;;;;10.37;98.21;101053.31;5025532;28;20116;-69
2022/12/20 10:50:22;;;;;;;5.25;2.70;;;;;;;10.35;98.73;101051.50;5025336;28;20017;-69
2022/12/20 10:53:09;;;;;;;4.70;2.58;;;;;;;10.31;99.28;101054.81;5025071;28;20313;-69
2022/12/20 10:55:37;;;;;;;5.15;2.92;;;;;;;10.29;99.83;101053.91;5024449;28;20133;-69
2022/12/20 10:58:36;;;;;;;5.65;2.67;;;;;;;10.24;100.00;101044.22;5024441;28;20332;-69
2022/12/20 11:01:17;;;;;;;6.00;2.75;;;;;;;10.22;100.00;101048.50;5020286;28;20092;-69
2022/12/20 11:03:58;;;;;;;6.50;2.78;;;;;;;10.20;100.00;101049.31;5025221;28;20076;-69
2022/12/20 11:06:44;;;;;;;6.35;3.08;;;;;;;10.17;100.00;101037.09;5025346;28;20017;-69
2022/12/20 11:09:36;;;;;;;6.15;3.65;;;;;;;10.14;100.00;101046.53;5024759;28;20025;-69
2022/12/20 11:12:05;;;;;;;7.35;3.67;;;;;;;10.11;100.00;101031.72;5025003;28;20029;-69
2022/12/20 11:14:32;;;;;;;6.65;3.22;;;;;;;10.09;100.00;101042.09;5024943;28;20211;-69
2022/12/20 11:17:02;;;;;;;5.75;3.28;;;;;;;10.09;100.00;101033.38;5025054;28;20028;-69
2022/12/20 11:19:52;;;;;;;6.30;3.22;;;;;;;10.09;100.00;101033.38;5024655;28;20025;-69
2022/12/20 11:22:26;;;;;;;6.55;3.38;;;;;;;10.08;100.00;101029.03;5024604;28;20028;-70
2022/12/20 11:25:19;;;;;;;7.07;3.60;;;;;;;10.06;100.00;101028.97;5024788;28;20271;-69
2022/12/20 11:28:12;;;;;;;5.90;3.30;;;;;;;10.05;100.00;101040.22;5024793;28;20021;-70
2022/12/20 11:30:46;;;;;;;7.07;3.35;;;;;;;10.03;100.00;101028.00;5024664;28;20257;-69
2022/12/20 11:33:39;;;;;;;5.40;3.53;;;;;;;10.03;100.00;101028.00;5024490;28;20180;-69
2022/12/20 11:36:10;;;;;;;6.97;3.40;;;;;;;10.02;100.00;101032.34;5024960;28;20079;-70
2022/12/20 11:38:58;;;;;;;6.03;3.45;;;;;;;10.02;100.00;101026.22;5024501;28;20068;-63
2022/12/20 11:41:34;;;;;;;6.35;3.47;;;;;;;10.02;100.00;101023.63;5024459;28;20266;-64
2022/12/20 11:44:09;;;;;;;9.65;3.78;;;;;;;10.01;100.00;101014.94;5024895;28;20017;-63